Airfield :
LOGIN :

Register | Disclaimer

   EN    FR    IT 

 










Legend :    VFR   Marginal VFR   IFR   Intensive IFR   Very Intensive IFR
Visi :
Ceiling :
>= 8 km
>= 3000ft
5 to 8 km
1000 to 3000 ft
1500m to 5 km
500 to 1000 ft
800 to 1500m
200 to 500 ft
< 800m
< 200 ft
Symbols :   Thunderstorms  Fog  Heavy snow  Heavy precipitations  Wind > 20 kt
SIGMETs :     Misc.  Thunderstorms  Icing  Turbulence  Mountain Waves  Volcanic Ashes






- Airport Elevation : 26 ft
- IATA code : BIA


LFKB - Bastia

CURRENT METAR :
  • 230200Z AUTO 15009KT 120V190 9999 FEW039/// BKN070/// BKN090/// ///CB 15/13 Q1005 TEMPO 3000 TSRA BKN012 SCT025CB OVC040

EXPIRED METARs :
  • 230130Z AUTO 14010KT 9999 -RA FEW049/// SCT062/// BKN072/// ///TCU 15/13 Q1005
  • 230100Z AUTO 15010KT 120V180 9000 -RA FEW019/// BKN064/// BKN100/// ///CB 15/13 Q1005 TEMPO 3000 TSRA BKN012 SCT025CB OVC040
  • 230030Z AUTO 15011KT 7000 -RA FEW030/// BKN047/// BKN060/// ///TCU 15/13 Q1006 TEMPO 3000 TSRA BKN012 SCT025CB OVC040
  • 230000Z AUTO 14016KT 7000 RA FEW032/// BKN044/// BKN054/// ///CB 15/13 Q1006 TEMPO 3000 TSRA BKN012 SCT025CB OVC040
  • 222330Z AUTO 14011KT 9999 -RA FEW018/// BKN068/// BKN100/// ///CB 15/12 Q1006 TEMPO 3000 TSRA BKN012 SCT025CB OVC040

TAF TAF LFKB
Valid from the 22 at 21:00 until the 23 at 21:00 UTC


222000Z 2221/2321 16010KT 9999 FEW030 BKN080 TX16/2313Z TN14/2222Z
TEMPO 2221/2317 SHRA SCT020 FEW030CB BKN040
PROB30 2222/2310 3000 TSRA BKN012 SCT025CB OVC040
ATIS : +33 4 95 59 19 40



MET'MAP, your aeronautical weather chart ! - Copyright ORBIFLY December 2007 - Disclaimer

ORBIFLY MET'MAP TEAM :

Programming & Development : Alexandra Zaïnal
Concept & Development : Baudouin d'Aumeries
Co-Development & Prog : Marc-Olivier Méhu
Technical & hardware support : Manuel Goepfert

Contact : metmap@orbifly.com




SOURCES & CREDITS :

   NOAA